Time;durP1;ratioP1;P1;durP2;ratioP2;P2;SDS_P1;SDS_P2;PMS_P1;PMS_P2;Temp;Humidity;BMP_temperature;BMP_pressure;BME280_temperature;BME280_humidity;BME280_pressure;Samples;Min_cycle;Max_cycle;Signal;HPM_P1;HPM_P2
2023/09/19 00:04:57;;;;;;;4.93;1.60;;;24.40;79.30;;;;;;10860487;32;20019;-77
2023/09/19 00:11:03;;;;;;;6.10;2.55;;;24.30;79.50;;;;;;10861010;32;20397;-77
2023/09/19 00:17:08;;;;;;;4.37;2.17;;;24.30;79.80;;;;;;10864458;32;20020;-77
2023/09/19 00:23:10;;;;;;;2.85;1.52;;;24.30;80.40;;;;;;10861536;32;20035;-78
2023/09/19 00:29:16;;;;;;;3.75;1.60;;;24.10;80.90;;;;;;10867508;32;20046;-77
2023/09/19 00:35:19;;;;;;;5.28;2.75;;;24.00;80.90;;;;;;10866511;32;20287;-78
2023/09/19 00:41:21;;;;;;;8.00;2.67;;;24.00;81.30;;;;;;10865787;32;20042;-77
2023/09/19 00:47:23;;;;;;;8.77;3.05;;;23.90;81.60;;;;;;10866528;32;20035;-77
2023/09/19 00:53:27;;;;;;;9.32;2.70;;;23.80;81.60;;;;;;10865757;32;20074;-77
2023/09/19 00:59:30;;;;;;;7.82;2.42;;;23.80;81.80;;;;;;10849160;32;20058;-77
2023/09/19 01:05:34;;;;;;;8.88;2.60;;;23.80;81.90;;;;;;10852034;32;20058;-77
2023/09/19 01:11:42;;;;;;;4.30;1.65;;;23.70;82.00;;;;;;10865154;32;20046;-77
2023/09/19 01:18:07;;;;;;;6.03;2.85;;;23.80;81.90;;;;;;10864933;32;20058;-77
2023/09/19 01:24:21;;;;;;;14.00;2.72;;;23.70;82.10;;;;;;10864387;32;20023;-76
2023/09/19 01:30:29;;;;;;;8.27;2.30;;;23.70;82.20;;;;;;10861847;32;20050;-77
2023/09/19 01:36:35;;;;;;;7.62;3.00;;;23.60;82.30;;;;;;10863190;32;20260;-77
2023/09/19 01:42:56;;;;;;;5.20;2.97;;;23.50;82.40;;;;;;10864862;32;20435;-77
2023/09/19 01:49:24;;;;;;;4.78;2.45;;;23.60;82.30;;;;;;10863053;32;20055;-77
2023/09/19 01:55:29;;;;;;;8.27;3.08;;;23.50;82.30;;;;;;10863653;32;20020;-76
2023/09/19 02:01:31;;;;;;;4.60;2.55;;;23.40;82.40;;;;;;10863710;32;20050;-76
2023/09/19 02:07:35;;;;;;;4.60;3.12;;;23.30;82.40;;;;;;10863444;32;20046;-76
2023/09/19 02:13:38;;;;;;;8.93;4.95;;;23.20;82.30;;;;;;10863123;32;20307;-76
2023/09/19 02:19:40;;;;;;;9.07;3.95;;;23.00;82.20;;;;;;10863071;32;20024;-76
2023/09/19 02:25:43;;;;;;;6.18;3.20;;;23.00;82.50;;;;;;10857858;32;20036;-77
2023/09/19 02:31:46;;;;;;;8.38;3.53;;;22.90;82.40;;;;;;10864066;32;20066;-75
2023/09/19 02:37:50;;;;;;;8.73;4.60;;;22.90;82.10;;;;;;10863101;32;20054;-74
2023/09/19 02:43:53;;;;;;;10.35;4.05;;;22.80;81.90;;;;;;10863581;32;20424;-75
2023/09/19 02:49:55;;;;;;;10.70;4.30;;;22.80;81.50;;;;;;10862214;32;20024;-75
2023/09/19 02:55:59;;;;;;;8.10;4.47;;;22.80;81.20;;;;;;10858670;32;20023;-75
2023/09/19 03:02:04;;;;;;;10.45;3.12;;;22.80;81.10;;;;;;10860812;32;20099;-77
2023/09/19 03:08:07;;;;;;;9.23;4.03;;;22.80;80.90;;;;;;10861803;32;20024;-75
2023/09/19 03:14:10;;;;;;;9.20;3.62;;;22.90;80.80;;;;;;10861480;32;20051;-75
2023/09/19 03:20:14;;;;;;;5.72;2.33;;;22.90;80.80;;;;;;10861347;32;20019;-76
2023/09/19 03:26:17;;;;;;;5.90;3.17;;;23.00;80.80;;;;;;10861210;32;20046;-77
2023/09/19 03:32:20;;;;;;;4.30;1.95;;;23.00;81.30;;;;;;10861106;32;20027;-75
2023/09/19 03:38:23;;;;;;;5.65;2.40;;;23.00;81.30;;;;;;10860186;32;20028;-75
2023/09/19 03:44:25;;;;;;;10.77;3.40;;;23.00;81.30;;;;;;10860964;32;20090;-75
2023/09/19 03:50:28;;;;;;;6.18;2.70;;;23.00;81.30;;;;;;10862032;32;20341;-76
2023/09/19 03:56:31;;;;;;;3.58;2.25;;;22.90;81.40;;;;;;10867203;32;20050;-77
2023/09/19 04:02:33;;;;;;;4.78;2.62;;;22.90;81.80;;;;;;10866134;32;20058;-77
2023/09/19 04:08:35;;;;;;;5.82;2.22;;;22.90;82.50;;;;;;10864473;32;20085;-77
2023/09/19 04:14:38;;;;;;;7.97;2.53;;;23.00;82.80;;;;;;10863979;32;20057;-77
2023/09/19 04:20:40;;;;;;;5.00;2.42;;;22.80;83.10;;;;;;10866505;32;20016;-77
2023/09/19 04:26:43;;;;;;;5.47;2.87;;;22.80;83.20;;;;;;10866472;32;20027;-76
2023/09/19 04:32:50;;;;;;;7.95;3.58;;;22.70;83.10;;;;;;10866097;32;20463;-76
2023/09/19 04:38:53;;;;;;;6.95;3.53;;;22.70;83.20;;;;;;10865925;32;20031;-76
2023/09/19 04:44:55;;;;;;;6.12;2.78;;;22.70;83.10;;;;;;10865727;32;20074;-76
2023/09/19 04:50:59;;;;;;;6.22;2.40;;;22.60;83.00;;;;;;10862214;32;20345;-76
2023/09/19 04:57:01;;;;;;;4.95;3.45;;;22.50;83.10;;;;;;10852058;32;20043;-76
2023/09/19 05:03:05;;;;;;;9.30;3.92;;;22.40;83.40;;;;;;10859913;32;20066;-76
2023/09/19 05:09:08;;;;;;;5.65;2.55;;;22.50;83.70;;;;;;10864277;32;20039;-77
2023/09/19 05:15:10;;;;;;;7.43;3.25;;;22.40;83.60;;;;;;10864971;32;20027;-76
2023/09/19 05:21:12;;;;;;;4.15;2.95;;;22.40;83.90;;;;;;10864737;32;20007;-76
2023/09/19 05:27:18;;;;;;;8.55;3.47;;;22.30;83.90;;;;;;10862100;32;20402;-77
2023/09/19 05:33:21;;;;;;;7.28;4.07;;;22.40;84.00;;;;;;10862012;32;20042;-76
2023/09/19 05:39:23;;;;;;;5.60;3.58;;;22.40;83.80;;;;;;10863741;32;20343;-76
2023/09/19 05:45:25;;;;;;;4.93;3.17;;;22.50;83.90;;;;;;10864136;32;20354;-76
2023/09/19 05:51:28;;;;;;;10.80;4.20;;;22.50;83.70;;;;;;10864028;32;20405;-77
2023/09/19 05:57:30;;;;;;;7.85;3.70;;;22.60;83.70;;;;;;10861596;32;20027;-76
2023/09/19 06:03:32;;;;;;;7.12;4.25;;;22.60;83.70;;;;;;10859783;32;20059;-76
2023/09/19 06:09:34;;;;;;;10.80;5.70;;;22.60;83.80;;;;;;10853859;32;20039;-77
2023/09/19 06:15:36;;;;;;;7.03;4.55;;;22.70;83.80;;;;;;10836521;32;20364;-77
2023/09/19 06:21:38;;;;;;;15.80;5.15;;;22.70;83.90;;;;;;10862630;32;20062;-77
2023/09/19 06:27:45;;;;;;;6.62;4.30;;;22.70;83.90;;;;;;10864549;32;20046;-77
2023/09/19 06:33:47;;;;;;;8.05;5.20;;;22.80;83.90;;;;;;10863833;32;20016;-76
2023/09/19 06:39:49;;;;;;;6.62;4.82;;;22.80;83.70;;;;;;10858150;32;20027;-77
2023/09/19 06:45:51;;;;;;;8.57;6.07;;;22.90;83.70;;;;;;10335620;32;17364780;-77
2023/09/19 06:51:55;;;;;;;8.15;3.53;;;23.00;83.60;;;;;;10943093;32;20026;-76
2023/09/19 06:57:58;;;;;;;13.73;7.75;;;23.00;83.60;;;;;;10940668;32;20102;-78
2023/09/19 07:04:00;;;;;;;11.10;6.05;;;23.10;83.50;;;;;;10942586;32;20321;-78
2023/09/19 07:10:10;;;;;;;14.10;7.57;;;23.20;83.60;;;;;;10943263;32;20014;-78
2023/09/19 07:16:19;;;;;;;10.38;5.37;;;23.30;83.40;;;;;;10942965;32;20022;-78
2023/09/19 07:22:27;;;;;;;11.70;6.05;;;23.40;83.40;;;;;;10938849;32;20042;-77
2023/09/19 07:28:30;;;;;;;18.50;8.90;;;23.50;83.40;;;;;;10936981;32;20042;-78
2023/09/19 07:34:31;;;;;;;8.80;6.15;;;23.50;83.70;;;;;;10941333;32;20037;-78
2023/09/19 07:40:34;;;;;;;12.37;8.48;;;23.50;83.60;;;;;;10940096;32;20052;-77
2023/09/19 07:46:36;;;;;;;7.15;5.15;;;23.70;83.50;;;;;;10953655;32;20076;-78
2023/09/19 07:52:39;;;;;;;8.93;4.55;;;23.70;83.30;;;;;;11017061;32;20041;-80
2023/09/19 07:58:44;;;;;;;7.70;5.35;;;23.80;83.40;;;;;;11015633;32;20017;-78
2023/09/19 08:04:46;;;;;;;9.00;5.47;;;23.90;83.30;;;;;;11003722;32;20057;-79
2023/09/19 08:10:56;;;;;;;11.82;6.57;;;24.10;83.40;;;;;;11016389;32;20007;-77
2023/09/19 08:16:58;;;;;;;13.40;7.30;;;24.20;83.40;;;;;;11017068;32;20060;-79
2023/09/19 08:23:00;;;;;;;15.27;7.70;;;24.30;83.40;;;;;;11016971;32;20022;-74
2023/09/19 08:29:04;;;;;;;9.95;6.90;;;24.30;82.80;;;;;;11014457;32;20026;-72
2023/09/19 08:35:07;;;;;;;10.05;6.32;;;24.40;82.60;;;;;;11016767;32;20424;-71
2023/09/19 08:41:09;;;;;;;25.08;8.07;;;24.50;82.30;;;;;;11019959;32;20018;-74
2023/09/19 08:47:14;;;;;;;17.20;11.95;;;24.60;81.90;;;;;;11022886;32;20014;-74
2023/09/19 08:53:31;;;;;;;10.00;4.87;;;24.70;81.90;;;;;;11022630;32;20050;-70
2023/09/19 08:59:36;;;;;;;13.13;7.30;;;24.80;81.70;;;;;;11022244;32;20075;-72
2023/09/19 09:05:41;;;;;;;17.70;7.35;;;24.80;81.50;;;;;;11022089;32;20019;-72
2023/09/19 09:11:43;;;;;;;8.48;6.18;;;24.90;81.80;;;;;;11023167;32;20037;-72
2023/09/19 09:17:52;;;;;;;11.27;7.45;;;25.00;81.70;;;;;;11007925;32;20058;-72
2023/09/19 09:23:55;;;;;;;9.82;5.80;;;25.10;81.70;;;;;;11018412;32;20010;-71
2023/09/19 09:29:57;;;;;;;11.73;7.20;;;25.20;81.70;;;;;;11008808;32;20419;-72
2023/09/19 09:36:02;;;;;;;11.40;6.18;;;25.30;81.50;;;;;;11019144;32;20022;-71
2023/09/19 09:42:06;;;;;;;12.00;6.78;;;25.40;80.90;;;;;;11019964;32;20046;-71
2023/09/19 09:48:18;;;;;;;17.10;7.78;;;25.60;80.50;;;;;;11005527;32;20045;-72
2023/09/19 09:54:21;;;;;;;8.10;5.37;;;25.80;79.90;;;;;;11020998;32;20018;-70
2023/09/19 10:00:23;;;;;;;17.12;9.98;;;25.90;79.20;;;;;;11015875;32;20037;-70
2023/09/19 10:06:25;;;;;;;12.48;5.35;;;25.90;78.90;;;;;;11019809;32;20348;-69
2023/09/19 10:12:28;;;;;;;7.78;5.37;;;26.10;78.50;;;;;;11016087;32;20341;-69
2023/09/19 10:18:36;;;;;;;12.00;6.05;;;26.30;78.00;;;;;;10978407;32;20179;-71
2023/09/19 10:24:40;;;;;;;9.38;5.95;;;26.40;77.50;;;;;;10981106;32;20392;-76
2023/09/19 10:30:47;;;;;;;9.07;5.65;;;26.60;77.20;;;;;;10980880;32;20038;-78
2023/09/19 10:36:51;;;;;;;7.18;3.87;;;26.90;76.90;;;;;;10980106;32;20019;-77
2023/09/19 10:42:55;;;;;;;7.12;4.78;;;27.10;76.90;;;;;;10966883;32;20325;-77
2023/09/19 10:49:01;;;;;;;10.43;4.70;;;27.30;76.20;;;;;;10979877;32;20076;-77
2023/09/19 10:55:03;;;;;;;10.40;4.47;;;27.40;75.80;;;;;;10953249;32;20042;-77
2023/09/19 11:01:07;;;;;;;7.62;4.87;;;27.00;76.20;;;;;;10965910;32;20034;-77
2023/09/19 11:07:11;;;;;;;9.52;4.32;;;27.00;76.30;;;;;;10979326;32;20034;-77
2023/09/19 11:13:31;;;;;;;14.07;3.78;;;27.40;74.70;;;;;;10978351;32;20019;-76
2023/09/19 11:26:47;;;;;;;6.93;3.83;;;28.30;73.20;;;;;;10982138;32;20030;-71
2023/09/19 11:33:46;;;;;;;8.35;4.10;;;28.60;72.90;;;;;;10979149;32;20019;-70
2023/09/19 11:40:09;;;;;;;8.30;4.37;;;28.30;72.80;;;;;;10974847;32;20451;-73
2023/09/19 11:46:16;;;;;;;7.32;4.15;;;28.10;73.30;;;;;;10978905;32;20022;-71
2023/09/19 11:52:24;;;;;;;8.98;3.85;;;28.30;72.70;;;;;;10978659;32;20037;-70
2023/09/19 11:58:28;;;;;;;7.93;3.25;;;28.30;72.30;;;;;;10978655;32;20030;-73
2023/09/19 12:04:37;;;;;;;4.95;3.17;;;28.50;72.10;;;;;;10964854;32;20022;-74
2023/09/19 12:10:51;;;;;;;7.47;3.33;;;28.40;71.40;;;;;;10965293;32;20037;-70
2023/09/19 12:16:57;;;;;;;9.18;4.32;;;28.20;71.60;;;;;;10985430;32;20010;-70
2023/09/19 12:23:01;;;;;;;5.47;3.10;;;27.90;72.20;;;;;;10985285;32;20014;-70
2023/09/19 12:29:04;;;;;;;9.05;3.95;;;27.80;72.80;;;;;;10982941;32;20023;-69
2023/09/19 12:41:35;;;;;;;5.65;2.47;;;27.80;71.40;;;;;;10985651;32;20037;-70
2023/09/19 12:47:37;;;;;;;8.18;2.78;;;27.80;71.00;;;;;;11005281;32;20054;-70
2023/09/19 12:53:43;;;;;;;5.65;2.72;;;27.80;70.90;;;;;;11022610;32;20041;-70
2023/09/19 12:59:46;;;;;;;7.30;3.00;;;27.90;70.20;;;;;;11008104;32;20027;-72
2023/09/19 13:05:57;;;;;;;8.20;2.70;;;28.00;69.90;;;;;;11008444;32;20340;-70
2023/09/19 13:12:42;;;;;;;7.07;3.12;;;28.10;69.30;;;;;;10983726;32;19998;-69
2023/09/19 13:18:46;;;;;;;7.80;2.30;;;28.30;68.80;;;;;;10983581;32;20053;-76
2023/09/19 13:24:51;;;;;;;4.95;2.42;;;28.30;68.60;;;;;;10966746;32;20069;-75
2023/09/19 13:30:54;;;;;;;3.83;2.80;;;28.40;68.10;;;;;;10983317;32;20018;-77
2023/09/19 13:36:58;;;;;;;3.78;2.28;;;28.30;68.10;;;;;;10981804;32;20053;-75
2023/09/19 13:43:06;;;;;;;3.92;2.67;;;28.40;67.70;;;;;;10979914;32;20049;-76
2023/09/19 13:49:09;;;;;;;;;;;28.20;67.90;;;;;;10982977;32;20042;-76
2023/09/19 13:55:14;;;;;;;6.37;2.78;;;28.10;68.10;;;;;;10969842;32;19922;-75
2023/09/19 14:01:16;;;;;;;4.70;2.50;;;27.90;68.10;;;;;;10982086;32;20007;-77
2023/09/19 14:07:19;;;;;;;3.33;2.17;;;27.90;68.40;;;;;;10982443;32;20015;-77
2023/09/19 14:13:22;;;;;;;5.20;2.35;;;27.80;68.70;;;;;;10982647;32;20014;-77
2023/09/19 14:19:43;;;;;;;4.70;2.55;;;27.70;69.00;;;;;;10969008;32;20037;-77
2023/09/19 14:25:46;;;;;;;2.45;1.55;;;27.70;69.00;;;;;;10981323;32;20023;-77
2023/09/19 14:31:48;;;;;;;4.10;2.12;;;27.60;69.30;;;;;;10954492;32;20057;-77
2023/09/19 14:37:50;;;;;;;4.28;2.40;;;27.60;69.40;;;;;;10980395;32;20027;-78
2023/09/19 14:43:52;;;;;;;4.95;2.65;;;27.70;69.30;;;;;;10980621;32;20018;-77
2023/09/19 14:49:55;;;;;;;8.00;2.20;;;27.80;68.80;;;;;;10944555;27;20097;-79
2023/09/19 14:56:00;;;;;;;8.93;2.50;;;28.20;67.80;;;;;;10939562;32;20067;-77
2023/09/19 15:02:04;;;;;;;4.12;2.12;;;28.50;67.20;;;;;;10930605;32;20019;-78
2023/09/19 15:08:06;;;;;;;3.33;2.10;;;28.70;66.80;;;;;;10942114;32;20019;-78
2023/09/19 15:14:08;;;;;;;7.80;2.50;;;28.90;66.30;;;;;;10943457;32;20046;-77
2023/09/19 15:20:13;;;;;;;5.25;1.90;;;29.20;65.70;;;;;;10942894;32;20065;-75
2023/09/19 15:26:21;;;;;;;8.07;2.33;;;29.50;69.50;;;;;;10950163;32;20390;-75
2023/09/19 15:32:24;;;;;;;8.52;3.10;;;29.30;71.70;;;;;;10942292;32;20440;-75
2023/09/19 15:38:28;;;;;;;6.35;3.67;;;28.80;74.80;;;;;;10942206;32;20408;-77
2023/09/19 15:44:30;;;;;;;7.45;2.65;;;28.40;75.30;;;;;;10935513;32;20030;-76
2023/09/19 15:50:32;;;;;;;8.88;3.03;;;28.20;76.10;;;;;;10943514;32;20039;-77
2023/09/19 15:56:35;;;;;;;9.45;3.00;;;28.00;75.60;;;;;;10949521;32;20027;-76
2023/09/19 16:02:37;;;;;;;6.53;2.65;;;27.80;75.60;;;;;;10948695;32;20023;-76
2023/09/19 16:08:43;;;;;;;2.28;1.67;;;27.50;75.70;;;;;;10949769;32;20041;-77
2023/09/19 16:14:45;;;;;;;7.60;2.12;;;27.40;75.30;;;;;;10947276;32;20049;-76
2023/09/19 16:20:48;;;;;;;3.62;1.70;;;27.40;74.50;;;;;;10949351;32;20051;-78
2023/09/19 16:26:51;;;;;;;4.10;1.73;;;27.30;74.40;;;;;;10948599;32;20432;-77
2023/09/19 16:32:53;;;;;;;4.72;1.87;;;27.10;74.30;;;;;;10948339;32;20349;-79
2023/09/19 16:38:55;;;;;;;7.82;2.45;;;26.90;74.30;;;;;;10944425;32;20069;-76
2023/09/19 16:44:59;;;;;;;3.28;1.37;;;26.70;74.80;;;;;;10909704;32;20054;-77
2023/09/19 16:51:08;;;;;;;2.87;1.45;;;26.50;75.40;;;;;;10909294;32;20023;-78
2023/09/19 16:57:11;;;;;;;1.90;1.15;;;26.30;75.70;;;;;;10921063;32;20031;-78
2023/09/19 17:03:15;;;;;;;2.03;1.40;;;26.30;75.70;;;;;;10907774;32;20035;-77
2023/09/19 17:09:18;;;;;;;3.25;1.45;;;26.20;76.10;;;;;;10921109;32;20097;-77
2023/09/19 17:15:21;;;;;;;13.77;1.42;;;26.00;76.80;;;;;;10906719;32;20345;-77
2023/09/19 17:21:25;;;;;;;2.12;1.12;;;25.90;77.00;;;;;;10908068;32;20041;-77
2023/09/19 17:27:27;;;;;;;1.00;0.88;;;25.80;77.30;;;;;;10905798;32;20031;-77
2023/09/19 17:33:29;;;;;;;2.40;0.98;;;25.80;78.10;;;;;;10904272;32;20050;-77
2023/09/19 17:39:31;;;;;;;1.73;1.02;;;25.70;78.00;;;;;;10900523;32;20406;-77
2023/09/19 17:45:34;;;;;;;4.15;1.40;;;25.60;77.70;;;;;;10903595;32;20405;-77
2023/09/19 17:51:36;;;;;;;1.55;0.95;;;25.60;77.70;;;;;;10902862;32;20027;-76
2023/09/19 17:57:40;;;;;;;4.40;2.60;;;25.50;78.10;;;;;;10901781;32;20051;-77
2023/09/19 18:03:43;;;;;;;2.75;1.30;;;25.40;78.10;;;;;;10900205;32;20030;-77
2023/09/19 18:09:45;;;;;;;4.60;1.95;;;25.30;78.50;;;;;;10899991;32;20069;-77
2023/09/19 18:15:48;;;;;;;1.75;0.98;;;25.20;78.90;;;;;;10901750;32;20050;-77
2023/09/19 18:21:51;;;;;;;3.28;1.62;;;25.20;78.80;;;;;;10952590;32;20443;-77
2023/09/19 18:28:05;;;;;;;4.85;1.50;;;25.20;78.80;;;;;;10943434;32;20027;-77
2023/09/19 18:34:07;;;;;;;5.65;1.80;;;25.10;78.80;;;;;;10944104;32;20178;-77
2023/09/19 18:40:12;;;;;;;5.75;2.25;;;25.10;78.90;;;;;;10943915;32;20018;-77
2023/09/19 18:46:24;;;;;;;4.00;1.50;;;25.00;79.10;;;;;;10944037;32;20414;-77
2023/09/19 18:52:27;;;;;;;1.92;1.17;;;25.00;79.00;;;;;;10929917;32;20031;-77
2023/09/19 18:58:29;;;;;;;3.45;1.65;;;24.90;79.20;;;;;;10942234;32;20049;-77
2023/09/19 19:04:31;;;;;;;2.08;1.08;;;24.90;79.20;;;;;;10944440;32;20014;-77
2023/09/19 19:10:39;;;;;;;1.75;1.10;;;24.80;79.10;;;;;;10942022;32;20023;-77
2023/09/19 19:16:42;;;;;;;;;;;24.80;79.30;;;;;;10940818;32;20401;-77
2023/09/19 19:22:44;;;;;;;3.25;1.65;;;24.70;79.90;;;;;;10951872;32;19944;-77
2023/09/19 19:28:47;;;;;;;4.22;1.98;;;24.60;79.90;;;;;;10941641;32;20046;-77
2023/09/19 19:34:54;;;;;;;2.80;1.35;;;24.50;80.10;;;;;;10940089;32;20026;-77
2023/09/19 19:41:03;;;;;;;2.17;1.50;;;24.40;80.70;;;;;;10941150;32;20023;-77
2023/09/19 19:47:06;;;;;;;2.92;1.48;;;24.40;80.60;;;;;;10941883;32;20015;-77
2023/09/19 19:53:08;;;;;;;3.08;1.80;;;24.30;80.60;;;;;;10939480;32;20416;-77
2023/09/19 19:59:12;;;;;;;5.03;2.95;;;24.20;80.90;;;;;;10940848;32;20019;-77
2023/09/19 20:05:18;;;;;;;4.03;2.97;;;24.00;81.80;;;;;;10938716;32;20345;-77
2023/09/19 20:11:22;;;;;;;6.35;3.08;;;24.00;82.30;;;;;;10941448;32;20325;-77
2023/09/19 20:17:24;;;;;;;6.22;2.55;;;23.90;82.70;;;;;;10941140;32;20389;-77
2023/09/19 20:23:27;;;;;;;6.35;3.45;;;23.80;83.00;;;;;;10936974;32;20018;-77
2023/09/19 20:29:30;;;;;;;5.50;2.97;;;24.00;83.00;;;;;;10939806;32;20023;-77
2023/09/19 20:35:38;;;;;;;7.55;3.12;;;24.10;82.50;;;;;;10943912;32;20448;-77
2023/09/19 20:41:40;;;;;;;7.35;2.97;;;24.00;82.70;;;;;;10944146;32;20447;-78
2023/09/19 20:47:44;;;;;;;5.35;3.42;;;23.80;83.20;;;;;;10944993;32;20045;-77
2023/09/19 20:54:16;;;;;;;5.80;2.58;;;23.80;83.70;;;;;;10947081;32;20042;-78
2023/09/19 21:00:20;;;;;;;5.62;2.90;;;23.80;83.70;;;;;;10945198;32;20081;-77
2023/09/19 21:06:22;;;;;;;6.03;2.58;;;23.90;83.60;;;;;;10946620;32;20019;-77
2023/09/19 21:12:24;;;;;;;3.72;2.25;;;23.90;83.30;;;;;;10946501;32;20007;-77
2023/09/19 21:18:26;;;;;;;4.07;2.72;;;24.00;83.30;;;;;;10946792;32;20049;-77
2023/09/19 21:24:32;;;;;;;5.85;2.97;;;24.00;83.40;;;;;;10946669;32;20432;-77
2023/09/19 21:30:34;;;;;;;5.07;2.83;;;24.00;83.70;;;;;;10945951;32;20042;-77
2023/09/19 21:36:36;;;;;;;4.03;1.95;;;23.90;83.80;;;;;;10945522;32;20014;-77
2023/09/19 21:42:38;;;;;;;1.90;1.05;;;23.90;83.90;;;;;;10945889;32;20042;-78
2023/09/19 21:48:48;;;;;;;5.25;1.77;;;23.90;83.70;;;;;;10945186;32;20038;-77
2023/09/19 21:54:53;;;;;;;8.25;2.42;;;23.80;83.70;;;;;;10946768;32;20038;-77
2023/09/19 22:00:55;;;;;;;2.95;1.67;;;23.80;83.60;;;;;;10944757;32;20014;-77
2023/09/19 22:06:57;;;;;;;3.83;2.12;;;23.80;83.70;;;;;;10945143;32;20368;-77
2023/09/19 22:12:59;;;;;;;9.90;3.10;;;23.70;84.00;;;;;;10944947;32;20404;-77
2023/09/19 22:19:05;;;;;;;4.62;2.67;;;23.70;84.30;;;;;;10943893;32;20023;-77
2023/09/19 22:25:08;;;;;;;8.77;2.37;;;23.80;84.20;;;;;;10945168;32;20003;-77
2023/09/19 22:31:17;;;;;;;2.08;1.48;;;23.70;84.30;;;;;;10943672;32;20019;-77
2023/09/19 22:37:20;;;;;;;9.70;2.37;;;23.70;84.20;;;;;;10944130;32;20023;-77
2023/09/19 22:43:32;;;;;;;5.75;2.65;;;23.70;84.20;;;;;;10941203;32;20023;-77
2023/09/19 22:49:34;;;;;;;3.70;1.65;;;23.70;84.20;;;;;;10846250;27;20048;-77
2023/09/19 22:55:39;;;;;;;5.05;2.03;;;23.60;84.50;;;;;;10788370;33;20023;-76
2023/09/19 23:01:48;;;;;;;3.33;1.45;;;23.50;84.50;;;;;;10789025;33;20303;-77
2023/09/19 23:07:57;;;;;;;5.68;2.53;;;23.50;84.60;;;;;;10788849;33;20419;-77
2023/09/19 23:14:01;;;;;;;3.58;2.25;;;23.50;84.80;;;;;;10788219;33;20021;-77
2023/09/19 23:20:04;;;;;;;5.57;1.60;;;23.50;84.60;;;;;;10787968;33;20042;-77
2023/09/19 23:26:06;;;;;;;4.40;2.12;;;23.50;84.80;;;;;;10787528;33;20020;-77
2023/09/19 23:32:14;;;;;;;2.83;1.62;;;23.50;85.00;;;;;;10788904;33;20048;-77
2023/09/19 23:38:16;;;;;;;5.03;2.10;;;23.40;85.20;;;;;;10787540;33;20016;-77
2023/09/19 23:44:18;;;;;;;2.00;1.40;;;23.50;85.20;;;;;;10788382;33;20012;-77
2023/09/19 23:50:24;;;;;;;2.35;1.48;;;23.40;85.10;;;;;;10787306;33;20039;-77
2023/09/19 23:56:28;;;;;;;4.32;1.73;;;23.40;85.10;;;;;;10786763;33;20019;-77
